x

9432780 - Charleston, Or (chao3) Weather Station

10:36pm - Sat 23rd Sep 2017 All times are PDT. -7 hours from GMT.

  • Wind
    3mph, 7mph gusts
  • Sea Temp 57°f
  • Sea Pressure 1019mb
  • 9432780 - Charleston, Or
  • 9432780 - Charleston, Or

More Historic Weather Station data

Upgrade to MSW Pro to gain access to the past 30 days of data for over 8000 Wavebouys and Weather Stations around the globe.

Join

Comparision Forecast

View Surf forecast
   
Sat 09/23 10:36pm 3 7 mph 1019mb 57f
10:30pm 3 9 mph 1019mb 57f
10:24pm 6 8 mph 1019mb 56f
10:18pm 6 9 mph 1019mb 56f
10:12pm 6 9 mph 1019mb 56f
10:06pm 5 9 mph 1018.9mb 56f
10:00pm 5 8 mph 1019mb 56f
9:36pm 6 9 mph 1018.9mb 56f
9:30pm 7 9 mph 1018.9mb 56f
9:24pm 3 9 mph 1019mb 56f
9:18pm 5 9 mph 1018.9mb 56f
9:12pm 7 9 mph 1018.9mb 56f
9:06pm 8 10 mph 1018.9mb 56f
9:00pm 6 10 mph 1018.9mb 56f
8:36pm 5 10 mph 1018.7mb 56f
8:30pm 7 11 mph 1018.8mb 56f
8:24pm 6 9 mph 1018.8mb 56f
8:18pm 6 9 mph 1018.8mb 56f
8:12pm 5 7 mph 1018.8mb 55f
8:06pm 5 7 mph 1018.8mb 55f
8:00pm  -  5 mph 1018.8mb 55f
7:36pm 6 9 mph 1018.7mb 55f
7:30pm 3 6 mph 1018.7mb 55f
7:24pm 2 5 mph 1018.6mb 55f
7:18pm 3 6 mph 1018.7mb 55f
7:12pm 5 7 mph 1018.7mb 55f
7:06pm 3 6 mph 1018.7mb 55f
7:00pm 6 10 mph 1018.7mb 55f
6:36pm 6 7 mph 1018.7mb 55f
6:30pm 7 8 mph 1018.6mb 55f
6:24pm 5 7 mph 1018.6mb 55f
6:18pm 5 8 mph 1018.6mb 55f
6:12pm 6 8 mph 1018.7mb 55f
6:06pm 6 7 mph 1018.7mb 55f
6:00pm 5 6 mph 1018.7mb 55f
5:36pm 5 7 mph 1018.7mb 55f
5:30pm 5 7 mph 1018.7mb 55f
5:24pm 6 7 mph 1018.7mb 55f
5:18pm 3 5 mph 1018.7mb 55f
5:12pm 2 3 mph 1018.6mb 55f
5:06pm 1 5 mph 1018.6mb 55f
5:00pm 1 6 mph 1018.7mb 55f
4:36pm 3 5 mph 1018.7mb 55f
4:30pm 2 5 mph 1018.7mb 55f
4:24pm 3 7 mph 1018.7mb 55f
4:18pm 6 8 mph 1018.8mb 55f
4:12pm 6 9 mph 1018.8mb 55f
4:06pm 7 9 mph 1018.8mb 55f
4:00pm 7 9 mph 1018.8mb 55f
3:36pm 7 9 mph 1018.9mb 55f
3:30pm 6 8 mph 1018.9mb 54f
3:24pm 6 9 mph 1019mb 54f
3:18pm 8 10 mph 1018.9mb 54f
3:12pm 5 7 mph 1018.8mb 54f
3:06pm 6 7 mph 1018.7mb 54f
3:00pm 6 8 mph 1018.6mb 54f
2:36pm 7 8 mph 1018.7mb 54f
2:30pm 7 8 mph 1018.7mb 54f
2:24pm 7 8 mph 1018.8mb 54f
2:18pm 7 8 mph 1018.9mb 54f
2:12pm 3 7 mph 1018.9mb 54f
2:06pm 6 7 mph 1019mb 54f
2:00pm 5 6 mph 1019mb 55f
1:36pm 2 3 mph 1019.3mb 55f
1:30pm 1 3 mph 1019.3mb 55f
1:24pm 2 3 mph 1019.5mb 55f
1:18pm 2 3 mph 1019.4mb 55f
1:12pm 1 3 mph 1019.5mb 55f
1:06pm 1 3 mph 1019.5mb 55f
1:00pm 2 3 mph 1019.6mb 55f
12:36pm  -  2 mph 1019.7mb 56f
12:30pm 2 2 mph 1019.8mb 56f
12:24pm 2 3 mph 1019.8mb 56f
12:18pm 2 3 mph 1019.8mb 56f
12:12pm 3 5 mph 1019.8mb 56f
12:06pm 2 3 mph 1019.8mb 56f
12:00pm 2 2 mph 1019.8mb 56f
11:36am 2 3 mph 1019.9mb 56f
11:30am 2 3 mph 1019.9mb 56f
11:24am 2 3 mph 1020mb 56f
11:18am 2 2 mph 1019.9mb 56f
11:12am  -  2 mph 1019.9mb 56f
11:06am  -  2 mph 1019.9mb 56f
11:00am 2 2 mph 1019.9mb 56f
10:36am 2 3 mph 1019.8mb 56f
10:30am 2 3 mph 1019.9mb 56f
10:24am 2 3 mph 1019.8mb 56f
10:18am 2 3 mph 1019.8mb 56f
10:12am 2 3 mph 1019.7mb 56f
10:06am 3 6 mph 1019.7mb 56f
10:00am 2 5 mph 1019.6mb 56f
9:36am 3 6 mph 1019.4mb 55f
9:30am 3 6 mph 1019.4mb 55f
9:24am 3 6 mph 1019.5mb 55f
9:18am 3 7 mph 1019.5mb 55f
9:12am 5 7 mph 1019.5mb 55f
9:06am 5 7 mph 1019.5mb 55f
9:00am 7 9 mph 1019.5mb 55f
8:36am 5 8 mph 1019.3mb 55f
8:30am 5 8 mph 1019.3mb 55f
8:24am 3 7 mph 1019.3mb 55f
8:18am 5 9 mph 1019.3mb 55f
8:12am 6 8 mph 1019.4mb 55f
8:06am 7 9 mph 1019.3mb 55f
8:00am 7 10 mph 1019.3mb 55f
7:36am 5 7 mph 1019.2mb 55f
7:30am 6 8 mph 1019.2mb 55f
7:24am 6 8 mph 1019.1mb 55f
7:18am 6 9 mph 1019.2mb 55f
7:12am 5 8 mph 1019.2mb 55f
7:06am 3 6 mph 1019.1mb 55f
7:00am 1 2 mph 1019.1mb 55f
6:36am 5 8 mph 1018.6mb 56f
6:30am 6 8 mph 1018.6mb 56f
6:24am 5 7 mph 1018.6mb 56f
6:18am 6 8 mph 1018.6mb 56f
6:12am 6 9 mph 1018.5mb 56f
6:06am 3 7 mph 1018.6mb 56f
6:00am 6 8 mph 1018.6mb 56f
5:36am 2 5 mph 1018.5mb 55f
5:30am 2 3 mph 1018.5mb 55f
5:24am 2 3 mph 1018.4mb 56f
5:18am 1 3 mph 1018.5mb 56f
5:12am 1 3 mph 1018.4mb 56f
5:06am  -  1 mph 1018.4mb 55f
5:00am  -  2 mph 1018.4mb 55f
4:36am 2 3 mph 1018.6mb 55f
4:30am 2 3 mph 1018.5mb 55f
4:24am 1 3 mph 1018.4mb 55f
4:18am 2 5 mph 1018.4mb 55f
4:12am 2 3 mph 1018.6mb 55f
4:06am 1 3 mph 1018.5mb 55f
4:00am 2 3 mph 1018.6mb 55f
3:36am 2 3 mph 1018.5mb 55f
3:30am 1 2 mph 1018.6mb 55f
3:24am  -  1 mph 1018.7mb 55f
3:18am  -  1 mph 1018.7mb 55f
3:12am 1 2 mph 1018.6mb 55f
3:06am  -  1 mph 1018.6mb 55f
3:00am  -  1 mph 1018.5mb 55f
2:36am  -  1 mph 1018.6mb 55f
2:30am 2 3 mph 1018.5mb 55f
2:24am  -  2 mph 1018.6mb 55f
2:18am  -  2 mph 1018.5mb 55f
2:12am 2 5 mph 1018.5mb 55f
2:06am  -  2 mph 1018.6mb 55f
2:00am  -  2 mph 1018.7mb 55f
1:36am  -  1 mph 1018.6mb 56f
1:30am  -  1 mph 1018.7mb 56f
1:24am  -  1 mph 1018.7mb 56f
1:18am 1 2 mph 1018.7mb 56f
1:12am  -  1 mph 1018.8mb 56f
1:06am 1 1 mph 1018.7mb 56f
1:00am  -  0 mph 1018.8mb 56f
12:36am  -  1 mph 1018.5mb 56f
12:30am  -  2 mph 1018.5mb 56f
12:24am  -  2 mph 1018.5mb 56f
12:18am 2 2 mph 1018.5mb 57f
12:12am  -  1 mph 1018.4mb 57f
12:06am  -  1 mph 1018.5mb 57f
12:00am  -  1 mph 1018.5mb 57f
Fri 09/22 11:54pm  -  1 mph 1018.5mb 57f
11:48pm  -  2 mph 1018.5mb 57f
11:36pm  -  3 mph 1018.6mb 57f
11:30pm 2 3 mph 1018.6mb 57f
11:24pm 1 2 mph 1018.5mb 57f
11:18pm 1 2 mph 1018.5mb 57f
11:12pm 1 3 mph 1018.5mb 57f
11:06pm 2 3 mph 1018.6mb 57f
11:00pm 1 5 mph 1018.6mb 57f
10:54pm 2 5 mph 1018.6mb 57f
10:48pm 3 5 mph 1018.6mb 57f
10:36pm 2 3 mph 1018.6mb 57f
10:30pm 2 3 mph 1018.6mb 57f
10:24pm 3 6 mph 1018.5mb 57f
10:18pm 2 5 mph 1018.4mb 57f
10:12pm 1 3 mph 1018.4mb 57f
10:06pm 1 3 mph 1018.6mb 57f
10:00pm 2 5 mph 1018.6mb 57f
9:54pm 2 5 mph 1018.5mb 57f
9:48pm 3 5 mph 1018.5mb 56f
9:36pm 3 5 mph 1018.4mb 56f
9:30pm 2 3 mph 1018.4mb 56f
9:24pm 1 2 mph 1018.5mb 56f
9:18pm 2 5 mph 1018.6mb 56f
9:12pm 1 5 mph 1018.5mb 56f
9:06pm 1 3 mph 1018.6mb 56f
9:00pm 3 3 mph 1018.6mb 56f
8:54pm 3 5 mph 1018.6mb 56f
8:48pm 3 5 mph 1018.6mb 56f
8:36pm 5 6 mph 1018.5mb 56f
8:30pm 3 6 mph 1018.5mb 56f
8:24pm 5 6 mph 1018.5mb 56f
8:18pm 5 7 mph 1018.5mb 56f
8:12pm 6 7 mph 1018.5mb 56f
8:06pm 6 7 mph 1018.5mb 56f
8:00pm 2 5 mph 1018.5mb 56f
7:54pm 1 3 mph 1018.4mb 56f
7:48pm 2 5 mph 1018.4mb 56f
7:36pm 5 8 mph 1018.3mb 56f
7:30pm 5 8 mph 1018.3mb 56f
7:24pm 5 7 mph 1018.2mb 56f
7:18pm 6 8 mph 1018.2mb 56f
7:12pm 7 8 mph 1018.3mb 56f
7:06pm 7 9 mph 1018.3mb 56f
7:00pm 8 13 mph 1018.3mb 56f
6:54pm 7 11 mph 1018.2mb 56f
6:36pm 8 11 mph 1018.1mb 56f
6:30pm 7 13 mph 1018.1mb 56f
6:24pm 8 14 mph 1018.1mb 56f
6:18pm 9 14 mph 1018mb 55f
6:12pm 8 17 mph 1018.1mb 55f
6:06pm 10 17 mph 1018.1mb 55f
6:00pm 8 15 mph 1018mb 55f
5:54pm 10 14 mph 1017.9mb 56f
5:48pm 8 11 mph 1017.9mb 55f
5:36pm 8 13 mph 1017.9mb 55f
5:30pm 9 14 mph 1017.9mb 55f
5:24pm 9 15 mph 1017.9mb 55f
5:18pm 7 13 mph 1017.9mb 55f
5:12pm 7 15 mph 1018mb 55f
5:06pm 11 16 mph 1017.8mb 55f
5:00pm 9 15 mph 1017.8mb 55f
4:54pm 9 16 mph 1017.8mb 55f
4:48pm 8 14 mph 1017.8mb 55f
4:36pm 8 14 mph 1017.9mb 55f
4:30pm 7 14 mph 1018mb 55f
4:24pm 8 16 mph 1018mb 55f
4:18pm 11 16 mph 1018mb 55f
4:12pm 10 17 mph 1018mb 55f
4:06pm 9 16 mph 1018mb 55f
4:00pm 9 15 mph 1017.9mb 55f
3:54pm 11 16 mph 1018mb 55f
3:48pm 10 16 mph 1018mb 55f
3:36pm 13 16 mph 1017.9mb 55f
3:30pm 14 18 mph 1017.9mb 55f
3:24pm 13 17 mph 1017.9mb 55f
3:18pm 14 16 mph 1017.8mb 55f
3:12pm 10 15 mph 1017.7mb 55f
3:06pm 10 15 mph 1017.7mb 55f
3:00pm 11 15 mph 1017.7mb 55f
2:54pm 13 15 mph 1017.6mb 55f
2:48pm 11 15 mph 1017.6mb 55f
2:36pm 8 14 mph 1017.4mb 55f
2:30pm 8 13 mph 1017.6mb 55f
2:24pm 7 13 mph 1017.6mb 55f
2:18pm 7 11 mph 1017.7mb 55f
2:12pm 8 11 mph 1017.9mb 55f
2:06pm 9 11 mph 1018mb 55f
2:00pm 6 9 mph 1018.1mb 55f
1:54pm 6 10 mph 1018.1mb 55f
1:48pm 9 11 mph 1018.1mb 55f
1:36pm 10 13 mph 1018mb 55f
1:30pm 7 10 mph 1018mb 55f
1:24pm 9 13 mph 1018mb 55f
1:18pm 11 13 mph 1018.1mb 55f
1:12pm 8 11 mph 1018.1mb 55f
1:06pm 7 10 mph 1018.1mb 55f
1:00pm 9 13 mph 1018.1mb 55f
12:54pm 11 15 mph 1018.1mb 55f
12:48pm 14 15 mph 1018.1mb 55f
12:36pm 13 15 mph 1018.1mb 55f
12:30pm 11 14 mph 1018.1mb 55f
12:24pm 13 14 mph 1018mb 55f
12:18pm 13 14 mph 1018mb 55f
12:12pm 11 13 mph 1018mb 55f
12:06pm 11 11 mph 1018mb 55f
12:00pm 11 11 mph 1018mb 56f
11:54am 9 10 mph 1018mb 56f
11:48am 7 9 mph 1017.9mb 56f
11:36am 7 8 mph 1017.9mb 56f
11:30am 6 7 mph 1017.9mb 56f
11:24am 6 7 mph 1018mb 56f
11:18am 6 7 mph 1018mb 56f
11:12am 6 8 mph 1018mb 55f
11:06am 6 6 mph 1017.9mb 55f
11:00am 5 6 mph 1017.9mb 55f
10:54am 3 5 mph 1017.8mb 55f
10:48am 2 3 mph 1017.8mb 55f
10:36am  -  2 mph 1017.8mb 55f
10:30am  -  2 mph 1017.8mb 55f
10:24am 1 3 mph 1017.8mb 55f
10:18am 2 3 mph 1017.9mb 55f
10:12am 2 3 mph 1017.9mb 55f
10:06am 3 5 mph 1017.9mb 55f
10:00am 3 5 mph 1017.9mb 55f
9:54am 2 5 mph 1017.9mb 55f
9:48am 5 6 mph 1017.9mb 55f
9:36am 2 6 mph 1017.9mb 55f
9:30am 3 6 mph 1017.9mb 55f
9:24am 3 6 mph 1017.9mb 55f
9:18am 2 3 mph 1017.8mb 55f
9:12am  -  3 mph 1017.7mb 55f
9:06am  -  3 mph 1017.6mb 55f
9:00am 1 5 mph 1017.6mb 55f
8:54am 2 6 mph 1017.6mb 55f
8:48am 2 5 mph 1017.7mb 55f
8:36am 1 3 mph 1017.6mb 55f
8:30am 2 6 mph 1017.6mb 55f
8:24am 2 3 mph 1017.5mb 55f
8:18am 1 5 mph 1017.5mb 55f
8:12am 3 5 mph 1017.5mb 55f
8:06am 2 5 mph 1017.4mb 55f
8:00am 2 5 mph 1017.4mb 55f
7:54am 3 6 mph 1017.4mb 55f
7:48am 1 3 mph 1017.4mb 55f
7:36am 2 5 mph 1017.4mb 55f
7:30am 3 5 mph 1017.3mb 55f
7:24am  -  2 mph 1017.2mb 55f
7:18am 1 3 mph 1017.1mb 55f
7:12am 1 5 mph 1017.1mb 55f
7:06am 2 6 mph 1017.1mb 55f
7:00am 3 6 mph 1017mb 55f
6:54am 2 5 mph 1017mb 55f
6:48am 3 5 mph 1016.9mb 55f
6:36am 3 5 mph 1016.8mb 55f
6:30am 1 3 mph 1016.8mb 55f
6:24am 1 3 mph 1016.7mb 55f
6:18am 2 5 mph 1016.7mb 55f
6:12am 3 5 mph 1016.6mb 55f
6:06am 2 6 mph 1016.6mb 55f
6:00am 3 6 mph 1016.6mb 55f
5:54am 3 6 mph 1016.5mb 55f
5:48am 3 5 mph 1016.4mb 55f
5:36am  -  1 mph 1016.4mb 55f
5:30am  -  2 mph 1016.3mb 55f
5:24am  -  1 mph 1016.3mb 55f
5:18am 1 3 mph 1016.3mb 55f
5:12am 1 5 mph 1016.2mb 55f
5:06am 2 3 mph 1016.1mb 55f
5:00am 2 3 mph 1016.1mb 55f
4:54am 2 3 mph 1016.1mb 55f
4:48am 3 5 mph 1016.2mb 55f
4:36am 2 3 mph 1016.1mb 55f
4:30am 2 3 mph 1016.1mb 55f
4:24am 2 3 mph 1016.1mb 55f
4:18am  -  2 mph 1016.1mb 55f
4:12am  -  2 mph 1016mb 55f
4:06am 1 2 mph 1016mb 55f
4:00am 2 3 mph 1016mb 55f
3:54am  -  1 mph 1016mb 55f
3:48am  -  1 mph 1016mb 55f
3:36am  -  3 mph 1015.8mb 55f
3:30am 2 3 mph 1015.7mb 55f
3:24am 2 2 mph 1015.7mb 55f
3:18am 2 2 mph 1015.8mb 55f
3:12am 2 2 mph 1015.8mb 55f
3:06am 1 2 mph 1015.8mb 55f
3:00am  -  2 mph 1015.8mb 55f
2:54am 1 2 mph 1015.9mb 55f
2:48am  -  1 mph 1015.9mb 55f
2:36am 1 2 mph 1015.8mb 55f
2:30am  -  3 mph 1015.8mb 55f
2:24am 2 3 mph 1015.8mb 55f
2:18am  -  5 mph 1015.8mb 55f
2:12am 3 5 mph 1015.7mb 55f
2:06am 5 6 mph 1015.7mb 55f
2:00am 5 7 mph 1015.7mb 55f
1:54am 5 7 mph 1015.7mb 55f
1:48am 6 8 mph 1015.7mb 55f
1:36am 6 8 mph 1015.6mb 55f
1:30am 6 9 mph 1015.5mb 55f
1:24am 6 8 mph 1015.5mb 55f
1:18am 6 8 mph 1015.4mb 55f
1:12am 6 8 mph 1015.5mb 55f
1:06am 6 8 mph 1015.5mb 55f
1:00am 5 7 mph 1015.4mb 55f
12:54am 5 7 mph 1015.4mb 55f
12:48am 3 6 mph 1015.5mb 55f
12:36am 1 2 mph 1015.6mb 55f
12:30am 1 2 mph 1015.6mb 55f
12:24am 1 2 mph 1015.6mb 55f
12:18am 2 3 mph 1015.7mb 55f
12:12am 1 2 mph 1015.7mb 55f
12:06am 1 2 mph 1015.7mb 55f
12:00am 1 2 mph 1015.7mb 55f
Thu 09/21 11:54pm  -  1 mph 1015.7mb 56f
11:48pm  -  2 mph 1015.7mb 56f
11:36pm 3 5 mph 1015.6mb 56f
11:30pm 5 6 mph 1015.6mb 56f
11:24pm 3 5 mph 1015.6mb 56f
11:18pm 3 5 mph 1015.6mb 56f
11:12pm 3 6 mph 1015.5mb 56f
11:06pm 3 6 mph 1015.4mb 56f
11:00pm 3 5 mph 1015.5mb 56f
10:54pm 3 5 mph 1015.4mb 56f
10:48pm 3 6 mph 1015.4mb 56f
10:36pm 3 6 mph 1015.3mb 56f
10:30pm 5 6 mph 1015.2mb 56f
10:24pm 5 6 mph 1015.2mb 56f
10:18pm 5 6 mph 1015.2mb 56f
10:12pm 5 6 mph 1015.2mb 56f
10:06pm 3 6 mph 1015.2mb 56f
10:00pm 3 3 mph 1015.1mb 56f
9:54pm 2 3 mph 1015.1mb 56f
9:36pm  -  2 mph 1015mb 56f
9:30pm 1 3 mph 1015mb 56f
9:24pm 2 3 mph 1015mb 56f
9:18pm 3 5 mph 1014.9mb 56f
9:12pm 2 3 mph 1014.8mb 56f
9:06pm 3 5 mph 1014.7mb 56f
9:00pm 2 5 mph 1014.7mb 56f
8:54pm 3 3 mph 1014.6mb 56f
8:36pm 3 3 mph 1014.4mb 56f
8:30pm 2 3 mph 1014.4mb 56f
8:24pm 2 3 mph 1014.4mb 56f
8:18pm 2 3 mph 1014.3mb 55f
8:12pm 2 3 mph 1014.3mb 55f
8:06pm 2 3 mph 1014.3mb 55f
8:00pm 3 3 mph 1014.2mb 55f
7:54pm 2 3 mph 1014.2mb 55f
7:48pm 1 2 mph 1014.2mb 55f
7:36pm 1 2 mph 1014.1mb 55f
7:30pm 1 3 mph 1014.1mb 55f
7:24pm 2 5 mph 1014.1mb 55f
7:18pm 3 7 mph 1014mb 55f
7:12pm 5 7 mph 1014mb 55f
7:06pm 3 7 mph 1014mb 55f
7:00pm 3 6 mph 1014mb 55f
6:54pm 1 5 mph 1013.9mb 55f
6:36pm 1 2 mph 1013.8mb 55f
6:30pm  -  1 mph 1013.8mb 55f
6:24pm  -  2 mph 1013.8mb 55f
6:18pm 1 3 mph 1013.8mb 55f
6:12pm  -  2 mph 1013.8mb 55f
6:06pm  -  1 mph 1013.8mb 55f
6:00pm  -  1 mph 1013.8mb 55f
5:54pm  -  1 mph 1013.8mb 55f
5:36pm 1 2 mph 1013.8mb 55f
5:30pm  -  3 mph 1013.9mb 55f
5:24pm 1 3 mph 1013.9mb 55f
5:18pm 2 5 mph 1013.9mb 55f
5:12pm 2 5 mph 1013.8mb 55f
5:06pm  -  2 mph 1013.8mb 55f
5:00pm  -  2 mph 1013.8mb 55f
4:54pm 1 6 mph 1013.8mb 55f
4:48pm 1 3 mph 1013.8mb 55f
4:36pm  -  3 mph 1013.8mb 55f
4:30pm  -  5 mph 1013.9mb 55f
4:24pm 2 3 mph 1013.9mb 55f
4:18pm 2 6 mph 1013.8mb 55f
4:12pm 1 2 mph 1013.8mb 55f
4:06pm 1 6 mph 1013.8mb 55f
4:00pm 2 3 mph 1013.8mb 55f
3:54pm  -  5 mph 1013.8mb 55f
3:48pm 2 5 mph 1013.9mb 55f
3:36pm  -  7 mph 1013.9mb 55f
3:30pm 2 7 mph 1014mb 55f
3:24pm 5 9 mph 1013.9mb 55f
3:18pm 2 7 mph 1014mb 55f
3:12pm 3 6 mph 1014mb 55f
3:06pm 2 5 mph 1014mb 55f
3:00pm 2 7 mph 1014mb 55f
2:54pm 3 7 mph 1013.9mb 55f
2:48pm 5 8 mph 1014mb 55f
2:36pm  -  5 mph 1013.9mb 55f
2:30pm 1 6 mph 1013.9mb 55f
2:24pm 3 6 mph 1013.9mb 55f
2:18pm 3 6 mph 1014mb 55f
2:12pm 1 3 mph 1013.9mb 55f
2:06pm 1 3 mph 1014mb 55f
2:00pm 2 5 mph 1014mb 55f
1:54pm 1 6 mph 1014mb 55f
1:48pm 1 3 mph 1014mb 55f
1:36pm 2 5 mph 1014mb 55f
1:30pm 2 5 mph 1014mb 55f
1:24pm 2 5 mph 1014.1mb 55f
1:18pm 2 6 mph 1014mb 55f
1:12pm 1 5 mph 1014mb 55f
1:06pm 2 3 mph 1014mb 55f
1:00pm 1 3 mph 1014.1mb 55f
12:54pm 3 7 mph 1014.1mb 55f
12:48pm 5 9 mph 1014.1mb 55f
12:36pm  -  2 mph 1014.1mb 55f
12:30pm  -  3 mph 1014.2mb 55f
12:24pm 2 6 mph 1014.1mb 55f
12:18pm 2 5 mph 1014.1mb 55f
12:12pm 2 6 mph 1014.2mb 55f
12:06pm 3 7 mph 1014.2mb 55f
12:00pm 2 6 mph 1014.2mb 55f
11:54am 2 5 mph 1014.2mb 55f
11:48am 2 7 mph 1014.2mb 55f
11:36am 2 7 mph 1014.3mb 55f
11:30am 3 7 mph 1014.4mb 55f
11:24am 3 5 mph 1014.4mb 56f
11:18am 3 5 mph 1014.4mb 56f
11:12am 1 6 mph 1014.4mb 56f
11:06am 3 6 mph 1014.4mb 56f
11:00am 2 5 mph 1014.4mb 56f
10:54am 3 8 mph 1014.3mb 56f
10:48am 2 7 mph 1014.4mb 56f
10:36am 2 6 mph 1014.4mb 56f
10:30am 3 7 mph 1014.4mb 56f
10:24am 3 7 mph 1014.4mb 56f
10:18am 2 6 mph 1014.4mb 56f
10:12am 2 6 mph 1014.4mb 56f
10:06am 2 9 mph 1014.4mb 56f
10:00am 2 8 mph 1014.4mb 56f
9:54am 3 6 mph 1014.4mb 56f
9:48am 2 7 mph 1014.4mb 56f
9:36am 3 9 mph 1014.4mb 56f
9:30am 3 6 mph 1014.4mb 56f
9:24am 5 8 mph 1014.4mb 56f
9:18am 3 14 mph 1014.3mb 56f
9:12am 3 7 mph 1014.3mb 55f
9:06am 3 10 mph 1014.3mb 55f
9:00am 5 9 mph 1014.3mb 55f
8:54am 3 8 mph 1014.3mb 55f
8:48am 5 8 mph 1014.3mb 55f
8:36am 2 7 mph 1014.4mb 55f
8:30am 3 9 mph 1014.4mb 55f
8:24am 5 7 mph 1014.5mb 55f
8:18am 3 7 mph 1014.5mb 55f
8:12am 5 8 mph 1014.5mb 55f
8:06am 5 8 mph 1014.4mb 55f
8:00am 3 7 mph 1014.4mb 55f
7:54am 2 8 mph 1014.4mb 55f
7:48am 2 6 mph 1014.4mb 55f
7:36am 5 7 mph 1014.4mb 55f
7:30am 3 6 mph 1014.4mb 55f
7:24am 5 8 mph 1014.3mb 55f
7:18am 3 9 mph 1014.2mb 55f
7:12am 3 8 mph 1014.2mb 55f
7:06am 3 7 mph 1014.1mb 55f
7:00am 3 8 mph 1014.2mb 55f
6:54am 3 7 mph 1014.2mb 55f
6:48am 5 8 mph 1014.2mb 55f
6:36am 3 7 mph 1014.2mb 55f
6:30am 3 8 mph 1014.3mb 55f
6:24am 5 10 mph 1014.3mb 55f
6:18am 5 9 mph 1014.3mb 55f
6:12am 5 9 mph 1014.3mb 55f
6:06am 3 7 mph 1014.2mb 55f
6:00am 3 8 mph 1014.3mb 55f
5:54am 3 6 mph 1014.2mb 55f
5:48am 5 7 mph 1014.2mb 55f
5:36am 3 9 mph 1014.2mb 55f
5:30am 3 8 mph 1014.2mb 55f
5:24am 3 9 mph 1014.2mb 55f
5:18am 3 9 mph 1014.1mb 55f
5:12am 5 9 mph 1014.3mb 55f
5:06am 3 7 mph 1014.3mb 55f
5:00am 3 8 mph 1014.3mb 55f
4:54am 5 9 mph 1014.2mb 55f
4:48am 5 8 mph 1014.3mb 55f
4:36am 5 9 mph 1014.4mb 55f
4:30am 6 8 mph 1014.3mb 55f
4:24am 5 10 mph 1014.2mb 55f
4:18am 6 11 mph 1014.2mb 55f
4:12am 5 9 mph 1014.3mb 55f
4:06am 5 10 mph 1014.3mb 55f
4:00am 3 6 mph 1014.2mb 55f
3:54am 3 7 mph 1014.2mb 55f
3:48am 6 9 mph 1014.1mb 55f
3:36am 3 8 mph 1014mb 55f
3:30am 5 9 mph 1014mb 55f
3:24am 6 9 mph 1014mb 55f
3:18am 5 7 mph 1013.9mb 55f
3:12am 3 8 mph 1013.9mb 55f
3:06am 6 8 mph 1013.9mb 55f
3:00am 6 8 mph 1013.7mb 55f
2:54am 6 7 mph 1013.6mb 55f
2:48am 2 6 mph 1013.8mb 55f
2:36am 1 3 mph 1013.8mb 55f
2:30am 2 3 mph 1013.8mb 55f
2:24am 1 2 mph 1013.8mb 55f
2:18am 2 3 mph 1013.8mb 55f
2:12am 2 3 mph 1013.8mb 55f
2:06am 2 3 mph 1013.8mb 55f
2:00am 2 3 mph 1013.9mb 55f
1:54am  -  1 mph 1013.9mb 55f
1:48am  -  1 mph 1013.9mb 54f
1:36am  -  1 mph 1013.8mb 54f
1:30am 1 1 mph 1013.8mb 54f
1:24am  -  2 mph 1013.7mb 54f
1:18am  -  1 mph 1013.6mb 55f
1:12am  -  2 mph 1013.6mb 55f
1:06am 1 2 mph 1013.7mb 55f
1:00am 1 1 mph 1013.7mb 55f
12:54am  -  1 mph 1013.7mb 55f
12:48am  -  1 mph 1013.7mb 55f
12:36am  -  1 mph 1013.6mb 55f
12:30am  -  2 mph 1013.5mb 55f
12:24am 1 1 mph 1013.4mb 55f
12:18am  -  1 mph 1013.4mb 55f
12:12am  -  1 mph 1013.4mb 55f
12:06am 1 2 mph 1013.3mb 55f
12:00am 2 2 mph 1013.2mb 55f
Wed 09/20 11:54pm 1 2 mph 1013.2mb 55f
11:36pm 2 5 mph 1013.1mb 55f
11:30pm 3 5 mph 1013.1mb 56f
11:24pm 2 3 mph 1013.1mb 56f
11:18pm 2 2 mph 1013.1mb 56f
11:12pm 2 3 mph 1013mb 56f
11:06pm 3 5 mph 1013mb 56f
11:00pm 3 5 mph 1013mb 56f
10:54pm 3 5 mph 1012.9mb 56f
10:48pm 2 8 mph 1012.8mb 57f
10:36pm 5 9 mph 1012.8mb 57f
10:30pm 6 11 mph 1012.8mb 57f
10:24pm 7 11 mph 1012.8mb 57f
10:18pm 7 11 mph 1012.7mb 57f
10:12pm 8 11 mph 1012.7mb 57f
10:06pm 9 13 mph 1012.7mb 57f
10:00pm 7 11 mph 1012.6mb 57f
9:54pm 8 10 mph 1012.5mb 57f
9:48pm 8 11 mph 1012.5mb 57f
9:36pm 9 11 mph 1012.3mb 57f
9:30pm 10 13 mph 1012.3mb 57f
9:24pm 9 13 mph 1012.2mb 57f
9:18pm 10 13 mph 1012.2mb 57f
9:12pm 3 7 mph 1012.1mb 57f
9:06pm  -  1 mph 1012.1mb 57f
9:00pm 2 2 mph 1012.1mb 57f
8:54pm  -  2 mph 1012.1mb 57f
8:36pm 2 7 mph 1011.8mb 57f
8:30pm 3 6 mph 1011.8mb 57f
8:24pm  -  3 mph 1011.7mb 57f
8:18pm 2 2 mph 1011.6mb 57f
8:12pm 1 1 mph 1011.5mb 57f
8:06pm  -  1 mph 1011.5mb 57f
8:00pm  -  2 mph 1011.5mb 57f
7:54pm  -  2 mph 1011.4mb 57f
7:36pm 2 5 mph 1011.3mb 57f
7:30pm 2 5 mph 1011.2mb 57f
7:24pm 2 5 mph 1011.2mb 57f
7:18pm  -  6 mph 1011.1mb 57f
7:12pm 1 8 mph 1011.1mb 57f
7:06pm 2 6 mph 1011.1mb 57f
7:00pm 2 11 mph 1011.1mb 56f
6:54pm 3 8 mph 1011mb 56f
6:48pm 2 6 mph 1011mb 56f
6:36pm 1 6 mph 1011mb 56f
6:30pm 2 6 mph 1010.9mb 56f
6:24pm  -  3 mph 1010.9mb 56f
6:18pm 2 6 mph 1010.9mb 56f
6:12pm  -  5 mph 1011mb 56f
6:06pm  -  3 mph 1011mb 56f
6:00pm 1 5 mph 1011mb 56f
5:54pm 1 3 mph 1011mb 56f
5:48pm 2 8 mph 1011mb 56f
5:36pm 3 11 mph 1010.9mb 56f
5:30pm 3 10 mph 1010.8mb 56f
5:24pm 3 8 mph 1010.7mb 56f
5:18pm 6 13 mph 1010.7mb 56f
5:12pm 7 11 mph 1010.7mb 56f
5:06pm 5 8 mph 1010.7mb 56f
5:00pm 5 9 mph 1010.8mb 56f
4:54pm 7 13 mph 1010.8mb 56f
4:48pm 3 10 mph 1010.8mb 56f
4:36pm 2 7 mph 1010.9mb 56f
4:30pm 2 3 mph 1010.8mb 56f
4:24pm 2 5 mph 1010.8mb 56f
4:18pm 3 7 mph 1010.9mb 56f
4:12pm 2 7 mph 1010.9mb 56f
4:06pm 3 6 mph 1010.9mb 56f
4:00pm 2 6 mph 1010.7mb 56f
3:54pm 2 6 mph 1010.8mb 56f
3:48pm 2 5 mph 1010.9mb 56f
3:36pm 5 8 mph 1010.9mb 56f
3:30pm 5 11 mph 1011mb 56f
3:24pm 11 14 mph 1011mb 56f
3:18pm 2 6 mph 1010.8mb 56f
3:12pm 1 5 mph 1010.7mb 56f
3:06pm 2 5 mph 1010.7mb 56f
3:00pm 1 5 mph 1010.8mb 56f
2:54pm 1 5 mph 1011mb 56f
2:48pm 5 10 mph 1011.3mb 56f
2:36pm 2 16 mph 1011.2mb 56f
2:30pm 11 20 mph 1011.3mb 56f
2:24pm 18 28 mph 1011.4mb 56f
2:18pm 25 37 mph 1011.2mb 56f
2:12pm 9 16 mph 1010.8mb 56f
2:06pm 7 15 mph 1010.8mb 56f
2:00pm 9 14 mph 1010.8mb 56f
1:54pm 6 9 mph 1010.9mb 56f
1:48pm  -  6 mph 1010.8mb 56f
1:36pm 3 6 mph 1010.9mb 56f
1:30pm 1 2 mph 1010.8mb 56f
1:24pm  -  5 mph 1010.9mb 56f
1:18pm 1 3 mph 1011mb 56f
1:12pm 1 5 mph 1011.1mb 56f
1:06pm 1 5 mph 1011.3mb 56f
1:00pm 3 8 mph 1011.3mb 56f
12:54pm 9 20 mph 1011.4mb 56f
12:48pm 14 16 mph 1011.6mb 56f
12:36pm 6 8 mph 1011.2mb 56f
12:30pm 5 5 mph 1011.1mb 56f
12:24pm 1 3 mph 1011.1mb 56f
12:18pm 1 3 mph 1011.1mb 56f
12:12pm 1 2 mph 1011.1mb 56f
12:06pm 2 6 mph 1011.1mb 56f
12:00pm 2 6 mph 1011.2mb 56f
11:54am 6 7 mph 1011.1mb 56f
11:48am 7 10 mph 1011.2mb 56f
11:36am 6 23 mph 1011.3mb 56f
11:30am 24 25 mph 1011.2mb 56f
11:24am 8 15 mph 1010.9mb 56f
11:18am 8 13 mph 1010.8mb 56f
11:12am 6 9 mph 1010.7mb 56f
11:06am 6 10 mph 1010.8mb 56f
11:00am 6 15 mph 1010.8mb 56f
10:54am 7 13 mph 1010.8mb 56f
10:48am 9 14 mph 1010.8mb 56f
10:36am 7 11 mph 1010.7mb 56f
10:30am 6 9 mph 1010.7mb 56f
10:24am 3 8 mph 1010.6mb 56f
10:18am 5 7 mph 1010.6mb 56f
10:12am 6 10 mph 1010.7mb 56f
10:06am 5 11 mph 1010.7mb 56f
10:00am 6 13 mph 1010.7mb 55f
9:54am 6 11 mph 1010.6mb 55f
9:48am 3 9 mph 1010.6mb 55f
9:36am 2 8 mph 1010.4mb 55f
9:30am 3 6 mph 1010.5mb 55f
9:24am 2 8 mph 1010.5mb 55f
9:18am 2 6 mph 1010.4mb 55f
9:12am 2 6 mph 1010.3mb 55f
9:06am 2 8 mph 1010.3mb 55f
9:00am 3 8 mph 1010.2mb 55f
8:54am 2 8 mph 1010.2mb 55f
8:48am 3 7 mph 1010.3mb 55f
8:36am 2 5 mph 1010.2mb 55f
8:30am 1 6 mph 1010.4mb 55f
8:24am 1 6 mph 1010.4mb 55f
8:18am 2 6 mph 1010.2mb 55f
8:12am 2 5 mph 1010.2mb 55f
8:06am 2 6 mph 1010.3mb 55f
8:00am 2 5 mph 1010.4mb 55f
7:54am 2 6 mph 1010.2mb 55f
7:48am 3 5 mph 1010.1mb 55f
7:36am 1 3 mph 1010.1mb 55f
7:30am 1 3 mph 1010.2mb 55f
7:24am 1 7 mph 1010.1mb 55f
7:18am 2 6 mph 1010.2mb 55f